Time;durP1;ratioP1;P1;durP2;ratioP2;P2;SDS_P1;SDS_P2;PMS_P1;PMS_P2;Temp;Humidity;BMP_temperature;BMP_pressure;BME280_temperature;BME280_humidity;BME280_pressure;Samples;Min_cycle;Max_cycle;Signal;HPM_P1;HPM_P2
2023/03/14 00:00:16;;;;;;;1.45;0.77;;;9.80;99.90;;;;;;5865515;24;20301;-66
2023/03/14 00:02:43;;;;;;;0.80;0.70;;;9.80;99.90;;;;;;5865888;24;20236;-66
2023/03/14 00:05:11;;;;;;;0.77;0.75;;;9.80;99.90;;;;;;5860199;24;20193;-66
2023/03/14 00:07:39;;;;;;;1.75;1.10;;;9.80;99.90;;;;;;5866097;24;20305;-66
2023/03/14 00:10:08;;;;;;;1.40;0.70;;;9.80;99.90;;;;;;5865023;24;20574;-66
2023/03/14 00:12:35;;;;;;;1.13;0.70;;;9.80;99.90;;;;;;5861650;24;20244;-66
2023/03/14 00:15:06;;;;;;;0.90;0.80;;;9.80;99.90;;;;;;5864525;24;20200;-66
2023/03/14 00:17:34;;;;;;;1.58;0.80;;;9.90;99.90;;;;;;5866327;24;20197;-66
2023/03/14 00:20:07;;;;;;;0.70;0.60;;;9.90;99.90;;;;;;5864677;24;20216;-66
2023/03/14 00:22:35;;;;;;;0.70;0.57;;;9.90;99.90;;;;;;5859882;24;20201;-66
2023/03/14 00:25:03;;;;;;;0.80;0.65;;;9.90;99.90;;;;;;5859159;24;20300;-66
2023/03/14 00:27:30;;;;;;;0.88;0.75;;;9.90;99.90;;;;;;5863709;24;20277;-66
2023/03/14 00:29:57;;;;;;;1.00;1.00;;;9.90;99.90;;;;;;5866032;24;20232;-66
2023/03/14 00:32:26;;;;;;;0.70;0.70;;;10.00;99.90;;;;;;5853860;24;20245;-66
2023/03/14 00:34:53;;;;;;;1.08;0.70;;;10.00;99.90;;;;;;5862492;24;20276;-66
2023/03/14 00:37:20;;;;;;;0.90;0.70;;;10.00;99.90;;;;;;5863923;24;20344;-66
2023/03/14 00:39:47;;;;;;;0.70;0.60;;;10.00;99.90;;;;;;5866066;24;20729;-66
2023/03/14 00:42:14;;;;;;;0.80;0.80;;;10.00;99.90;;;;;;5858086;24;20207;-66
2023/03/14 00:44:42;;;;;;;0.80;0.80;;;10.00;99.90;;;;;;5856246;24;20197;-66
2023/03/14 00:47:08;;;;;;;0.80;0.60;;;10.10;99.90;;;;;;5861425;24;20280;-66
2023/03/14 00:49:37;;;;;;;0.90;0.80;;;10.10;99.90;;;;;;5852685;24;20295;-66
2023/03/14 00:52:04;;;;;;;0.70;0.60;;;10.10;99.90;;;;;;5861216;24;20221;-66
2023/03/14 00:54:32;;;;;;;2.13;0.70;;;10.10;99.90;;;;;;5864587;24;20202;-66
2023/03/14 00:56:59;;;;;;;0.90;0.70;;;10.10;99.90;;;;;;5864964;24;20523;-66
2023/03/14 00:59:26;;;;;;;1.48;0.82;;;10.10;99.90;;;;;;5870005;24;20221;-66
2023/03/14 01:01:53;;;;;;;1.45;0.65;;;10.10;99.90;;;;;;5873255;24;20605;-66
2023/03/14 01:04:20;;;;;;;1.20;1.00;;;10.20;99.90;;;;;;5862648;24;20236;-66
2023/03/14 01:06:48;;;;;;;2.35;0.80;;;10.20;99.90;;;;;;5849599;24;20197;-66
2023/03/14 01:09:17;;;;;;;2.65;0.85;;;10.20;99.90;;;;;;5865398;24;20236;-66
2023/03/14 01:11:46;;;;;;;1.10;0.77;;;10.20;99.90;;;;;;5865882;24;20221;-66
2023/03/14 01:14:13;;;;;;;0.90;0.80;;;10.20;99.90;;;;;;5856827;24;20289;-66
2023/03/14 01:16:40;;;;;;;0.70;0.60;;;10.30;99.90;;;;;;5866152;24;20729;-66
2023/03/14 01:19:07;;;;;;;0.85;0.70;;;10.30;99.90;;;;;;5867669;24;20233;-67
2023/03/14 01:21:36;;;;;;;0.70;0.70;;;10.30;99.90;;;;;;5864381;24;20212;-67
2023/03/14 01:24:06;;;;;;;0.90;0.70;;;10.30;99.90;;;;;;5862481;24;20197;-67
2023/03/14 01:26:34;;;;;;;0.70;0.60;;;10.30;99.90;;;;;;5861222;24;20633;-67
2023/03/14 01:29:03;;;;;;;1.55;0.90;;;10.30;99.90;;;;;;5863853;24;20241;-66
2023/03/14 01:31:30;;;;;;;0.93;0.60;;;10.40;99.90;;;;;;5864183;24;20848;-66
2023/03/14 01:33:57;;;;;;;0.85;0.68;;;10.30;99.90;;;;;;5859111;24;20544;-66
2023/03/14 01:36:24;;;;;;;0.90;0.70;;;10.20;99.90;;;;;;5854385;24;20715;-66
2023/03/14 01:38:51;;;;;;;0.80;0.70;;;10.20;99.90;;;;;;5860711;24;20218;-66
2023/03/14 01:41:22;;;;;;;1.00;0.57;;;10.20;99.90;;;;;;5855721;24;20229;-66
2023/03/14 01:43:50;;;;;;;0.80;0.80;;;10.20;99.90;;;;;;5857464;24;20190;-66
2023/03/14 01:46:32;;;;;;;1.20;0.60;;;10.20;99.90;;;;;;5857915;24;20224;-66
2023/03/14 01:49:04;;;;;;;1.02;0.60;;;10.20;99.90;;;;;;5861660;24;20269;-66
2023/03/14 01:51:37;;;;;;;2.17;0.70;;;10.20;99.90;;;;;;5864093;24;20224;-66
2023/03/14 01:54:10;;;;;;;0.82;0.63;;;10.30;99.90;;;;;;5855286;24;20198;-66
2023/03/14 01:56:41;;;;;;;1.13;0.85;;;10.20;99.90;;;;;;5854966;24;20200;-66
2023/03/14 01:59:10;;;;;;;0.80;0.70;;;10.30;99.90;;;;;;5859219;24;20222;-66
2023/03/14 02:01:39;;;;;;;1.23;0.60;;;10.30;99.90;;;;;;5866025;24;20208;-67
2023/03/14 02:04:08;;;;;;;0.60;0.50;;;10.30;99.90;;;;;;5863576;24;20201;-66
2023/03/14 02:06:45;;;;;;;1.10;0.95;;;10.30;99.90;;;;;;5856475;24;20194;-66
2023/03/14 02:09:12;;;;;;;1.15;0.70;;;10.30;99.90;;;;;;5860838;24;20213;-66
2023/03/14 02:11:41;;;;;;;1.88;0.70;;;10.30;99.90;;;;;;5867873;24;20520;-66
2023/03/14 02:14:10;;;;;;;0.90;0.68;;;10.30;99.90;;;;;;5862875;24;20279;-66
2023/03/14 02:16:37;;;;;;;0.80;0.80;;;10.30;99.90;;;;;;5863315;24;20209;-66
2023/03/14 02:19:07;;;;;;;1.33;0.70;;;10.30;99.90;;;;;;5855949;24;20221;-66
2023/03/14 02:21:46;;;;;;;1.20;0.68;;;10.40;99.90;;;;;;5872575;24;20288;-66
2023/03/14 02:24:22;;;;;;;0.98;0.60;;;10.40;99.90;;;;;;5874674;24;20268;-66
2023/03/14 02:27:08;;;;;;;1.15;0.60;;;10.40;99.90;;;;;;5865793;24;20201;-66
2023/03/14 02:29:40;;;;;;;0.80;0.60;;;10.50;99.90;;;;;;5866064;24;20241;-67
2023/03/14 02:32:08;;;;;;;1.10;0.60;;;10.50;99.90;;;;;;5859103;24;20213;-66
2023/03/14 02:34:36;;;;;;;0.60;0.60;;;10.50;99.90;;;;;;5868965;24;20593;-66
2023/03/14 02:37:05;;;;;;;1.30;1.10;;;10.50;99.90;;;;;;5859310;24;20194;-66
2023/03/14 02:39:37;;;;;;;0.85;0.65;;;10.50;99.90;;;;;;5865115;24;20194;-66
2023/03/14 02:42:06;;;;;;;1.60;0.60;;;10.50;99.90;;;;;;5857570;24;20190;-66
2023/03/14 02:44:33;;;;;;;1.10;0.70;;;10.50;99.90;;;;;;5865736;24;20232;-66
2023/03/14 02:47:00;;;;;;;0.95;0.65;;;10.50;99.90;;;;;;5865431;24;20289;-66
2023/03/14 02:49:32;;;;;;;0.75;0.60;;;10.50;99.90;;;;;;5866676;24;20280;-66
2023/03/14 02:51:59;;;;;;;1.33;0.60;;;10.50;99.90;;;;;;5857538;24;20213;-66
2023/03/14 02:54:25;;;;;;;0.80;0.70;;;10.40;99.90;;;;;;5863243;24;20208;-66
2023/03/14 02:56:53;;;;;;;2.75;0.80;;;10.40;99.90;;;;;;5860381;24;20193;-66
2023/03/14 02:59:21;;;;;;;1.10;0.80;;;10.40;99.90;;;;;;5864023;24;20213;-66
2023/03/14 03:01:48;;;;;;;0.60;0.60;;;10.40;99.90;;;;;;5855763;24;20443;-66
2023/03/14 03:04:15;;;;;;;0.90;0.52;;;10.40;99.90;;;;;;5851397;24;20198;-66
2023/03/14 03:06:42;;;;;;;0.88;0.65;;;10.40;99.90;;;;;;5854660;24;20193;-66
2023/03/14 03:09:09;;;;;;;0.80;0.63;;;10.40;99.90;;;;;;5857273;24;20221;-66
2023/03/14 03:11:36;;;;;;;1.55;0.80;;;10.40;99.90;;;;;;5862005;24;20729;-66
2023/03/14 03:14:03;;;;;;;1.50;0.77;;;10.40;99.90;;;;;;5866598;24;20276;-66
2023/03/14 03:16:31;;;;;;;1.05;0.77;;;10.40;99.90;;;;;;5872660;24;20272;-66
2023/03/14 03:18:58;;;;;;;1.23;0.80;;;10.40;99.90;;;;;;5865744;24;20296;-66
2023/03/14 03:21:25;;;;;;;1.42;1.33;;;10.30;99.90;;;;;;5851088;24;20388;-66
2023/03/14 03:23:52;;;;;;;1.58;0.70;;;10.30;99.90;;;;;;5867334;24;20213;-66
2023/03/14 03:26:20;;;;;;;0.90;0.70;;;10.30;99.90;;;;;;5862197;24;20280;-67
2023/03/14 03:28:47;;;;;;;1.25;0.80;;;10.40;99.90;;;;;;5864779;24;20300;-66
2023/03/14 03:31:13;;;;;;;1.60;0.80;;;10.40;99.90;;;;;;5876482;24;20613;-66
2023/03/14 03:33:42;;;;;;;1.10;0.60;;;10.30;99.90;;;;;;5865462;24;20600;-67
2023/03/14 03:36:10;;;;;;;1.63;0.70;;;10.30;99.90;;;;;;5858648;24;20223;-66
2023/03/14 03:38:37;;;;;;;1.70;0.80;;;10.30;99.90;;;;;;5864479;24;20682;-66
2023/03/14 03:41:06;;;;;;;1.20;0.70;;;10.30;99.90;;;;;;5864275;24;20524;-66
2023/03/14 03:43:32;;;;;;;2.00;0.90;;;10.30;99.90;;;;;;5859264;24;20737;-66
2023/03/14 03:46:03;;;;;;;1.27;0.70;;;10.30;99.90;;;;;;5858141;24;20276;-66
2023/03/14 03:48:30;;;;;;;1.13;0.73;;;10.30;99.90;;;;;;5861649;24;20216;-66
2023/03/14 03:50:58;;;;;;;1.00;0.73;;;10.30;99.90;;;;;;5845964;24;20240;-66
2023/03/14 03:53:25;;;;;;;1.10;0.80;;;10.30;99.90;;;;;;5857743;24;20343;-66
2023/03/14 03:55:52;;;;;;;1.95;1.00;;;10.20;99.90;;;;;;5876454;24;20280;-66
2023/03/14 03:58:20;;;;;;;1.10;0.93;;;10.20;99.90;;;;;;5869911;24;20215;-66
2023/03/14 04:00:47;;;;;;;1.40;0.80;;;10.20;99.90;;;;;;5865758;24;20211;-66
2023/03/14 04:03:14;;;;;;;1.55;0.90;;;10.20;99.90;;;;;;5856231;24;20232;-66
2023/03/14 04:05:41;;;;;;;2.05;0.90;;;10.20;99.90;;;;;;5855756;24;20285;-66
2023/03/14 04:08:10;;;;;;;2.78;0.75;;;10.20;99.90;;;;;;5865967;24;20217;-66
2023/03/14 04:10:37;;;;;;;1.98;1.27;;;10.20;99.90;;;;;;5864933;24;20220;-66
2023/03/14 04:13:04;;;;;;;1.23;0.90;;;10.20;99.90;;;;;;5871904;24;20217;-66
2023/03/14 04:15:31;;;;;;;1.20;0.90;;;10.20;99.90;;;;;;5867250;24;20190;-66
2023/03/14 04:17:59;;;;;;;1.67;1.00;;;10.20;99.90;;;;;;5868768;24;20236;-67
2023/03/14 04:20:26;;;;;;;1.30;0.70;;;10.20;99.90;;;;;;5870535;24;20197;-66
2023/03/14 04:22:53;;;;;;;1.02;0.82;;;10.10;99.90;;;;;;5855936;24;20244;-66
2023/03/14 04:25:22;;;;;;;1.40;0.80;;;10.20;99.90;;;;;;5866622;24;20190;-66
2023/03/14 04:27:49;;;;;;;4.78;1.15;;;10.10;99.90;;;;;;5871608;24;20248;-66
2023/03/14 04:30:16;;;;;;;1.45;1.00;;;10.10;99.90;;;;;;5865297;24;20212;-66
2023/03/14 04:32:43;;;;;;;2.67;0.80;;;10.10;99.90;;;;;;5875227;24;20224;-67
2023/03/14 04:35:10;;;;;;;0.80;0.80;;;10.10;99.90;;;;;;5863612;24;20197;-66
2023/03/14 04:37:37;;;;;;;2.05;0.88;;;10.10;99.90;;;;;;5867064;24;20213;-66
2023/03/14 04:40:06;;;;;;;2.85;0.90;;;10.10;99.90;;;;;;5864478;24;20511;-66
2023/03/14 04:42:34;;;;;;;2.80;0.85;;;10.10;99.90;;;;;;5858532;24;20257;-66
2023/03/14 04:45:02;;;;;;;2.28;0.90;;;10.10;99.90;;;;;;5860305;24;20829;-66
2023/03/14 04:47:29;;;;;;;2.63;1.05;;;10.00;99.90;;;;;;5862748;24;20300;-66
2023/03/14 04:49:56;;;;;;;1.45;0.98;;;10.00;99.90;;;;;;5857235;24;20200;-66
2023/03/14 04:52:23;;;;;;;4.30;1.27;;;10.00;99.90;;;;;;5862861;24;20231;-66
2023/03/14 04:54:50;;;;;;;2.58;1.00;;;10.00;99.90;;;;;;5865443;24;20248;-66
2023/03/14 04:57:17;;;;;;;3.25;0.80;;;10.00;99.90;;;;;;5857773;24;20220;-66
2023/03/14 04:59:45;;;;;;;1.35;0.70;;;10.00;99.90;;;;;;5859135;24;20193;-66
2023/03/14 05:02:13;;;;;;;1.35;1.00;;;10.00;99.90;;;;;;5864814;24;20228;-66
2023/03/14 05:04:40;;;;;;;4.50;1.33;;;9.90;99.90;;;;;;5866509;24;20189;-66
2023/03/14 05:07:06;;;;;;;1.65;1.25;;;9.90;99.90;;;;;;5866627;24;20225;-66
2023/03/14 05:09:34;;;;;;;1.63;0.82;;;9.90;99.90;;;;;;5866413;24;20593;-66
2023/03/14 05:12:01;;;;;;;1.98;0.90;;;9.90;99.90;;;;;;5860794;24;20201;-67
2023/03/14 05:14:28;;;;;;;2.00;0.90;;;9.90;99.90;;;;;;5845025;24;20233;-66
2023/03/14 05:16:56;;;;;;;3.55;1.45;;;9.80;99.90;;;;;;5863126;24;20212;-66
2023/03/14 05:19:23;;;;;;;2.00;0.98;;;9.80;99.90;;;;;;5858684;24;20705;-67
2023/03/14 05:21:50;;;;;;;2.95;1.00;;;9.80;99.90;;;;;;5865820;24;20251;-67
2023/03/14 05:24:17;;;;;;;2.00;1.20;;;9.80;99.90;;;;;;5853031;24;20200;-67
2023/03/14 05:26:44;;;;;;;2.15;1.00;;;9.80;99.90;;;;;;5860006;24;20686;-67
2023/03/14 05:29:11;;;;;;;2.38;0.80;;;9.80;99.90;;;;;;5871844;24;20285;-67
2023/03/14 05:31:39;;;;;;;2.45;0.88;;;9.80;99.90;;;;;;5866685;24;20228;-66
2023/03/14 05:34:07;;;;;;;1.70;0.90;;;9.80;99.90;;;;;;5853784;24;20225;-67
2023/03/14 05:36:34;;;;;;;3.10;0.73;;;9.80;99.90;;;;;;5864332;24;20278;-66
2023/03/14 05:39:02;;;;;;;1.70;0.93;;;9.80;99.90;;;;;;5875943;24;20217;-66
2023/03/14 05:41:29;;;;;;;3.10;1.48;;;9.80;99.90;;;;;;5857665;24;20532;-66
2023/03/14 05:43:57;;;;;;;2.38;0.80;;;9.80;99.90;;;;;;5860455;24;20306;-67
2023/03/14 05:46:24;;;;;;;1.60;1.00;;;9.80;99.90;;;;;;5858516;24;20612;-66
2023/03/14 05:48:52;;;;;;;2.05;0.80;;;9.80;99.90;;;;;;5865340;24;20224;-67
2023/03/14 05:51:20;;;;;;;1.70;0.80;;;9.90;99.90;;;;;;5866774;24;20642;-66
2023/03/14 05:53:47;;;;;;;2.90;0.80;;;9.90;99.90;;;;;;5865034;24;20356;-66
2023/03/14 05:56:15;;;;;;;2.80;1.05;;;9.90;99.90;;;;;;5857664;24;20604;-67
2023/03/14 05:58:42;;;;;;;1.45;0.82;;;9.90;99.90;;;;;;5858793;24;20218;-67
2023/03/14 06:01:10;;;;;;;2.10;0.90;;;9.90;99.90;;;;;;5859563;24;20718;-67
2023/03/14 06:03:37;;;;;;;3.05;1.15;;;9.90;99.90;;;;;;5858538;24;20279;-66
2023/03/14 06:06:04;;;;;;;3.10;1.17;;;9.90;99.90;;;;;;5859269;24;20716;-77
2023/03/14 06:08:34;;;;;;;1.55;0.80;;;9.90;99.90;;;;;;5857664;24;20217;-67
2023/03/14 06:11:03;;;;;;;1.90;1.00;;;10.00;99.90;;;;;;5867668;24;20641;-67
2023/03/14 06:13:31;;;;;;;1.80;0.90;;;10.00;99.90;;;;;;5865993;24;20578;-67
2023/03/14 06:15:58;;;;;;;3.33;1.02;;;10.00;99.90;;;;;;5866855;24;20252;-67
2023/03/14 06:18:25;;;;;;;1.55;0.80;;;10.00;99.90;;;;;;5872568;24;20617;-67
2023/03/14 06:20:55;;;;;;;2.08;0.90;;;10.00;99.90;;;;;;5863983;24;20253;-67
2023/03/14 06:23:23;;;;;;;4.28;1.30;;;10.00;99.90;;;;;;5863588;24;20321;-68
2023/03/14 06:25:51;;;;;;;2.58;1.00;;;10.00;99.90;;;;;;5866020;24;20238;-69
2023/03/14 06:28:19;;;;;;;1.52;0.65;;;10.00;99.90;;;;;;5868436;24;20224;-68
2023/03/14 06:30:47;;;;;;;1.63;1.08;;;10.00;99.90;;;;;;5874708;24;20531;-67
2023/03/14 06:33:14;;;;;;;2.25;0.82;;;10.00;99.90;;;;;;5864184;24;20247;-68
2023/03/14 06:35:41;;;;;;;1.20;0.75;;;10.00;99.90;;;;;;5856265;24;20218;-68
2023/03/14 06:38:09;;;;;;;3.70;0.95;;;10.10;99.90;;;;;;5856509;24;20239;-68
2023/03/14 06:40:36;;;;;;;3.70;1.35;;;10.10;99.90;;;;;;5860706;24;20197;-67
2023/03/14 06:43:04;;;;;;;1.65;1.02;;;10.00;99.90;;;;;;5866948;24;20205;-68
2023/03/14 06:45:32;;;;;;;1.85;1.13;;;10.10;99.90;;;;;;5862119;24;20197;-68
2023/03/14 06:48:00;;;;;;;1.73;1.10;;;10.10;99.90;;;;;;5864066;24;20213;-68
2023/03/14 06:50:27;;;;;;;2.75;1.08;;;10.10;99.90;;;;;;5860322;24;20209;-67
2023/03/14 06:52:55;;;;;;;2.35;0.98;;;10.20;99.90;;;;;;5864518;24;20205;-68
2023/03/14 06:55:23;;;;;;;1.10;0.90;;;10.30;99.90;;;;;;5865450;24;20277;-66
2023/03/14 06:57:50;;;;;;;4.88;1.30;;;10.30;99.90;;;;;;5857077;24;20206;-67
2023/03/14 07:00:20;;;;;;;5.05;1.10;;;10.40;99.90;;;;;;5834768;24;20194;-67
2023/03/14 07:02:47;;;;;;;1.65;1.05;;;10.60;99.90;;;;;;5859100;24;20595;-67
2023/03/14 07:05:14;;;;;;;1.83;1.05;;;10.60;99.90;;;;;;5850494;24;20569;-67
2023/03/14 07:07:42;;;;;;;3.80;1.00;;;10.70;99.90;;;;;;5866636;24;20217;-67
2023/03/14 07:10:10;;;;;;;1.95;0.90;;;10.80;99.90;;;;;;5866385;24;20241;-67
2023/03/14 07:12:38;;;;;;;1.58;0.80;;;10.80;99.90;;;;;;5850896;24;20198;-68
2023/03/14 07:15:07;;;;;;;1.17;0.73;;;10.80;99.90;;;;;;5849347;24;20570;-67
2023/03/14 07:17:35;;;;;;;1.70;0.90;;;10.90;99.90;;;;;;5865060;24;20256;-67
2023/03/14 07:20:05;;;;;;;3.70;0.90;;;11.10;99.90;;;;;;5861093;24;20272;-67
2023/03/14 07:22:32;;;;;;;1.55;0.70;;;11.20;99.90;;;;;;5863272;24;20216;-67
2023/03/14 07:25:00;;;;;;;1.45;0.70;;;11.40;99.90;;;;;;5857461;24;20201;-67
2023/03/14 07:27:27;;;;;;;4.70;0.80;;;11.20;99.90;;;;;;5861623;24;20215;-67
2023/03/14 07:29:55;;;;;;;1.75;0.77;;;11.50;99.90;;;;;;5858417;24;20212;-67
2023/03/14 07:32:22;;;;;;;1.40;0.70;;;11.50;99.90;;;;;;5873081;24;20185;-67
2023/03/14 07:34:51;;;;;;;1.42;0.85;;;11.50;99.90;;;;;;5862922;24;20213;-67
2023/03/14 07:37:18;;;;;;;1.63;0.70;;;11.50;99.90;;;;;;5861107;24;20216;-68
2023/03/14 07:39:46;;;;;;;2.78;0.60;;;11.60;99.90;;;;;;5860718;24;20193;-67
2023/03/14 07:42:13;;;;;;;1.65;0.80;;;11.60;99.90;;;;;;5860410;24;20190;-68
2023/03/14 07:44:41;;;;;;;1.48;0.80;;;11.70;99.90;;;;;;5856969;24;20277;-68
2023/03/14 07:47:09;;;;;;;2.35;0.60;;;11.80;99.90;;;;;;5853220;24;20216;-67
2023/03/14 07:49:36;;;;;;;1.33;0.90;;;11.80;99.90;;;;;;5860549;24;20197;-67
2023/03/14 07:52:05;;;;;;;1.00;0.80;;;11.80;99.90;;;;;;5862685;24;20265;-68
2023/03/14 07:54:33;;;;;;;2.45;1.00;;;11.90;99.90;;;;;;5858297;24;20320;-67
2023/03/14 07:57:00;;;;;;;1.70;0.85;;;11.90;99.90;;;;;;5860893;24;20225;-68
2023/03/14 07:59:28;;;;;;;1.70;0.75;;;12.00;99.90;;;;;;5867389;24;20204;-67
2023/03/14 08:01:56;;;;;;;1.20;0.70;;;12.10;99.90;;;;;;5861577;24;20590;-67
2023/03/14 08:04:23;;;;;;;0.98;0.88;;;12.10;99.90;;;;;;5851798;24;20189;-67
2023/03/14 08:06:50;;;;;;;1.50;0.73;;;12.20;99.90;;;;;;5872024;24;20220;-67
2023/03/14 08:09:19;;;;;;;1.30;1.00;;;12.40;99.90;;;;;;5865874;24;20446;-67
2023/03/14 08:11:46;;;;;;;1.23;0.60;;;12.60;99.90;;;;;;5866761;24;20446;-67
2023/03/14 08:14:14;;;;;;;0.80;0.60;;;12.90;99.90;;;;;;5863925;24;21879;-68
2023/03/14 08:16:41;;;;;;;1.30;0.67;;;13.20;99.90;;;;;;5858865;24;20545;-67
2023/03/14 08:19:09;;;;;;;1.97;0.70;;;13.40;99.90;;;;;;5860028;24;20447;-68
2023/03/14 08:21:36;;;;;;;1.23;0.70;;;13.70;99.90;;;;;;5854238;24;20480;-67
2023/03/14 08:24:04;;;;;;;1.70;0.80;;;13.70;99.90;;;;;;5864660;24;20436;-67
2023/03/14 08:26:32;;;;;;;1.10;0.60;;;13.70;99.90;;;;;;5861030;24;20458;-67
2023/03/14 08:29:00;;;;;;;2.40;0.70;;;13.70;99.90;;;;;;5865077;24;21040;-68
2023/03/14 08:31:28;;;;;;;0.70;0.50;;;13.80;99.90;;;;;;5849699;24;20483;-67
2023/03/14 08:33:55;;;;;;;1.37;0.50;;;13.60;99.90;;;;;;5862959;24;20482;-67
2023/03/14 08:36:23;;;;;;;0.93;0.50;;;13.40;99.90;;;;;;5864366;24;20450;-67
2023/03/14 08:38:50;;;;;;;0.83;0.60;;;13.10;99.90;;;;;;5858238;24;20900;-67
2023/03/14 08:41:17;;;;;;;0.83;0.70;;;12.90;99.90;;;;;;5862884;24;20930;-67
2023/03/14 08:43:46;;;;;;;1.17;0.60;;;13.10;99.90;;;;;;5865987;24;20443;-67
2023/03/14 08:46:14;;;;;;;1.20;0.60;;;13.20;99.90;;;;;;5858101;24;20789;-67
2023/03/14 08:48:41;;;;;;;1.10;0.60;;;13.30;99.90;;;;;;5850209;24;20447;-67
2023/03/14 08:51:12;;;;;;;0.70;0.50;;;13.30;99.90;;;;;;5857884;24;20504;-67
2023/03/14 08:53:39;;;;;;;1.90;0.60;;;13.30;99.90;;;;;;5855172;24;20457;-67
2023/03/14 08:56:09;;;;;;;0.70;0.50;;;13.30;99.90;;;;;;5865546;24;20466;-67
2023/03/14 08:58:37;;;;;;;1.30;0.70;;;13.40;99.90;;;;;;5854139;24;20444;-67
2023/03/14 09:01:08;;;;;;;2.40;0.60;;;13.60;99.90;;;;;;5855698;24;20513;-67
2023/03/14 09:03:36;;;;;;;1.37;0.60;;;13.70;99.90;;;;;;5859757;24;20449;-67
2023/03/14 09:06:05;;;;;;;1.07;0.50;;;13.70;99.90;;;;;;5863832;24;20451;-67
2023/03/14 09:08:33;;;;;;;0.80;0.60;;;13.40;99.90;;;;;;5861219;24;20445;-67
2023/03/14 09:11:00;;;;;;;1.30;0.67;;;13.20;99.90;;;;;;5861145;24;20766;-67
2023/03/14 09:13:28;;;;;;;1.50;1.20;;;13.00;99.90;;;;;;5857026;24;20462;-67
2023/03/14 09:15:57;;;;;;;2.20;0.70;;;12.80;99.90;;;;;;5866450;24;20465;-67
2023/03/14 09:18:25;;;;;;;1.17;0.70;;;12.70;99.90;;;;;;5862399;24;20493;-67
2023/03/14 09:20:53;;;;;;;0.60;0.50;;;12.70;99.90;;;;;;5852759;24;20288;-67
2023/03/14 09:23:20;;;;;;;0.90;0.50;;;12.40;99.90;;;;;;5862169;24;20438;-68
2023/03/14 09:25:48;;;;;;;1.42;0.70;;;12.70;99.90;;;;;;5859209;24;20209;-67
2023/03/14 09:28:16;;;;;;;1.17;0.60;;;12.50;99.90;;;;;;5865550;24;20209;-68
2023/03/14 09:30:43;;;;;;;1.73;0.77;;;12.60;99.90;;;;;;5864332;24;21296;-68
2023/03/14 09:33:10;;;;;;;0.90;0.55;;;12.50;99.90;;;;;;5860882;24;20942;-68
2023/03/14 09:35:39;;;;;;;0.80;0.70;;;12.30;99.90;;;;;;5861382;24;20264;-67
2023/03/14 09:38:06;;;;;;;1.30;0.80;;;12.10;99.90;;;;;;5855861;24;20682;-67
2023/03/14 09:40:37;;;;;;;1.27;0.60;;;12.10;99.90;;;;;;5859329;24;20774;-67
2023/03/14 09:43:05;;;;;;;1.15;0.60;;;12.20;99.90;;;;;;5853207;24;20194;-67
2023/03/14 09:45:34;;;;;;;0.75;0.50;;;12.30;99.90;;;;;;5849810;24;21212;-68
2023/03/14 09:48:04;;;;;;;0.50;0.40;;;12.30;99.90;;;;;;5858463;24;20217;-67
2023/03/14 09:50:38;;;;;;;1.35;0.70;;;12.20;99.90;;;;;;5854014;24;20197;-67
2023/03/14 09:53:13;;;;;;;0.73;0.50;;;12.20;99.90;;;;;;5855301;24;20241;-67
2023/03/14 09:55:42;;;;;;;0.73;0.50;;;12.20;99.90;;;;;;5858453;24;20224;-68
2023/03/14 09:58:12;;;;;;;1.67;0.73;;;12.20;99.90;;;;;;5851161;24;20223;-68
2023/03/14 10:00:40;;;;;;;0.68;0.60;;;12.30;99.90;;;;;;5855185;24;20446;-67
2023/03/14 10:03:25;;;;;;;1.23;0.67;;;12.30;99.90;;;;;;5855752;24;20224;-67
2023/03/14 10:05:53;;;;;;;0.93;0.50;;;12.50;99.90;;;;;;5851197;24;20453;-67
2023/03/14 10:08:22;;;;;;;0.87;0.50;;;12.60;99.90;;;;;;5855492;24;20910;-68
2023/03/14 10:10:50;;;;;;;1.53;0.90;;;12.90;99.90;;;;;;5863549;24;20990;-68
2023/03/14 10:13:21;;;;;;;0.90;0.50;;;12.90;99.90;;;;;;5856879;24;20475;-67
2023/03/14 10:15:53;;;;;;;1.83;0.50;;;13.20;99.90;;;;;;5860694;24;20538;-67
2023/03/14 10:18:21;;;;;;;0.60;0.50;;;13.50;99.90;;;;;;5858793;24;20451;-68
2023/03/14 10:20:50;;;;;;;0.70;0.50;;;13.70;99.90;;;;;;5863828;24;20810;-68
2023/03/14 10:23:26;;;;;;;0.70;0.50;;;13.90;99.90;;;;;;5858398;24;20453;-68
2023/03/14 10:26:05;;;;;;;0.70;0.50;;;14.00;99.90;;;;;;5860248;24;20452;-68
2023/03/14 10:28:35;;;;;;;1.40;0.60;;;14.00;99.90;;;;;;5858835;24;20953;-68
2023/03/14 10:31:04;;;;;;;0.87;0.40;;;14.10;99.90;;;;;;5855439;24;20449;-68
2023/03/14 10:33:33;;;;;;;0.70;0.50;;;14.30;99.90;;;;;;5857666;24;20450;-68
2023/03/14 10:36:03;;;;;;;0.60;0.50;;;14.00;99.90;;;;;;5857194;24;20483;-68
2023/03/14 10:38:33;;;;;;;2.03;0.50;;;13.80;99.90;;;;;;5855599;24;20452;-68
2023/03/14 10:41:02;;;;;;;0.70;0.60;;;13.60;99.90;;;;;;5852561;24;20959;-68
2023/03/14 10:43:33;;;;;;;0.90;0.50;;;13.60;99.90;;;;;;5858117;24;20475;-67
2023/03/14 10:46:07;;;;;;;0.70;0.50;;;13.50;99.90;;;;;;5861222;24;20454;-68
2023/03/14 10:48:37;;;;;;;0.60;0.50;;;13.40;99.90;;;;;;5856229;24;20446;-67
2023/03/14 10:51:08;;;;;;;0.70;0.50;;;13.20;99.90;;;;;;5863921;24;20445;-68
2023/03/14 10:53:42;;;;;;;0.90;0.50;;;13.00;99.90;;;;;;5855673;24;20453;-67
2023/03/14 10:56:13;;;;;;;2.33;0.57;;;13.00;99.90;;;;;;5863621;24;20236;-67
2023/03/14 10:58:43;;;;;;;0.60;0.50;;;12.90;99.90;;;;;;5858364;24;20461;-67
2023/03/14 11:01:27;;;;;;;0.60;0.50;;;12.80;99.90;;;;;;5857400;24;20798;-67
2023/03/14 11:04:00;;;;;;;0.70;0.50;;;12.70;99.90;;;;;;5862600;24;20442;-67
2023/03/14 11:06:37;;;;;;;1.02;0.60;;;12.60;99.90;;;;;;5865272;24;20477;-68
2023/03/14 11:09:15;;;;;;;0.75;0.60;;;12.50;99.90;;;;;;5857262;24;20200;-67
2023/03/14 11:11:47;;;;;;;0.95;0.57;;;12.30;99.90;;;;;;5856581;24;20189;-67
2023/03/14 11:14:29;;;;;;;0.60;0.55;;;12.10;99.90;;;;;;5859753;24;20256;-67
2023/03/14 11:17:03;;;;;;;0.95;0.50;;;11.90;99.90;;;;;;5857488;24;20241;-67
2023/03/14 11:19:48;;;;;;;0.70;0.52;;;11.70;99.90;;;;;;5856501;24;20190;-67
2023/03/14 11:22:23;;;;;;;0.82;0.52;;;11.60;99.90;;;;;;5857153;24;20212;-67
2023/03/14 11:25:11;;;;;;;1.00;0.63;;;11.40;99.90;;;;;;5858431;24;20208;-66
2023/03/14 11:27:44;;;;;;;1.17;0.60;;;11.30;99.90;;;;;;5857744;24;20214;-66
2023/03/14 11:30:22;;;;;;;0.60;0.50;;;11.20;99.90;;;;;;5859789;24;20198;-66
2023/03/14 11:33:00;;;;;;;1.38;0.60;;;11.20;99.90;;;;;;5865106;24;20473;-67
2023/03/14 11:35:31;;;;;;;3.83;0.70;;;11.00;99.90;;;;;;5856864;24;20244;-67
2023/03/14 11:38:10;;;;;;;0.98;0.60;;;10.90;99.90;;;;;;5859093;24;20292;-67
2023/03/14 11:40:40;;;;;;;2.60;0.50;;;10.80;99.90;;;;;;5858102;24;20272;-67
2023/03/14 11:43:14;;;;;;;1.33;0.60;;;10.70;99.90;;;;;;5852177;24;20226;-67
2023/03/14 11:45:43;;;;;;;1.02;0.60;;;10.70;99.90;;;;;;5852999;24;20503;-67
2023/03/14 11:48:29;;;;;;;0.70;0.45;;;10.70;99.90;;;;;;5859571;24;20193;-67
2023/03/14 11:51:00;;;;;;;0.70;0.60;;;10.70;99.90;;;;;;5854994;24;20583;-68
2023/03/14 11:53:41;;;;;;;0.60;0.50;;;10.80;99.90;;;;;;5861691;24;20288;-68
2023/03/14 11:56:17;;;;;;;0.60;0.50;;;10.90;99.90;;;;;;5860281;24;20375;-67
2023/03/14 11:58:52;;;;;;;0.60;0.40;;;10.80;99.90;;;;;;5854324;24;20295;-67
2023/03/14 12:01:23;;;;;;;0.52;0.50;;;10.80;99.90;;;;;;5856888;24;20185;-68
2023/03/14 12:03:57;;;;;;;1.15;0.50;;;10.70;99.90;;;;;;5847995;24;20614;-68
2023/03/14 12:06:28;;;;;;;2.05;0.70;;;10.60;99.90;;;;;;5862870;24;20312;-67
2023/03/14 12:08:57;;;;;;;0.60;0.47;;;10.60;99.90;;;;;;5863124;24;20646;-67
2023/03/14 12:11:34;;;;;;;0.75;0.60;;;10.50;99.90;;;;;;5862860;24;20217;-68
2023/03/14 12:14:02;;;;;;;1.30;0.60;;;10.50;99.90;;;;;;5860194;24;20199;-68
2023/03/14 12:16:40;;;;;;;0.70;0.50;;;10.50;99.90;;;;;;5866535;24;20217;-66
2023/03/14 12:19:33;;;;;;;0.95;0.70;;;10.60;99.90;;;;;;5863961;24;20192;-67
2023/03/14 12:22:14;;;;;;;0.88;0.60;;;10.70;99.90;;;;;;5860690;24;20196;-67
2023/03/14 12:24:48;;;;;;;0.70;0.60;;;10.80;99.90;;;;;;5838504;24;20224;-68
2023/03/14 12:27:54;;;;;;;0.60;0.60;;;10.90;99.90;;;;;;5854743;24;20623;-68
2023/03/14 12:30:29;;;;;;;0.73;0.50;;;10.90;99.90;;;;;;5837675;24;20197;-70
2023/03/14 12:33:23;;;;;;;0.60;0.50;;;10.80;99.90;;;;;;5855245;24;20193;-68
2023/03/14 12:35:51;;;;;;;2.08;0.65;;;10.70;99.90;;;;;;5858922;24;20531;-68
2023/03/14 12:38:23;;;;;;;0.95;0.60;;;10.60;99.90;;;;;;5863407;24;20196;-68
2023/03/14 12:40:59;;;;;;;1.40;0.80;;;10.50;99.90;;;;;;5852072;24;20228;-71
2023/03/14 12:43:30;;;;;;;1.58;1.05;;;10.20;99.90;;;;;;5848483;24;20188;-67
2023/03/14 12:46:20;;;;;;;1.55;1.00;;;10.00;99.90;;;;;;5842864;24;20249;-67
2023/03/14 12:48:49;;;;;;;1.00;0.90;;;9.70;99.90;;;;;;5839823;24;20186;-68
2023/03/14 12:51:18;;;;;;;1.35;1.00;;;9.70;99.90;;;;;;5844924;24;20228;-67
2023/03/14 12:54:08;;;;;;;1.58;0.80;;;9.50;99.90;;;;;;5835993;24;20305;-67
2023/03/14 12:56:49;;;;;;;1.45;1.00;;;9.40;99.90;;;;;;5838959;24;20233;-67
2023/03/14 12:59:40;;;;;;;2.17;1.05;;;9.70;99.90;;;;;;5842820;24;20249;-66